Latest Weather Observations for Lord Howe Island Windy Point

IDN60801

Issued at 1:03 pm EST Monday 6 July 2015 (issued every 30 minutes, with the page automatically refreshed every 10 minutes)

About weather observations | Map of weather stations | Latest weather observations for NSW | Other Formats
Station Details ID: 200715 Name: LORD HOWE ISLAND WINDY POINT Lat: -31.54 Lon: 159.07 Height: 4.0 m
Data from the previous 72 hours. | See also: Recent months for locations in New South Wales
Date/Time
EST
Temp
°C
App
Temp
°C
Dew
Point
Rel
Hum
%
Delta-T
°C
Wind Press
QNH
hPa
Press
MSL
hPa
Rain
since 9 am
mm
Dir
 
Spd
km/h
Gust
km/h
Spd
kts
Gust
kts
06/01:00pm - - - - - W 22 26 12 14 - - -
06/12:30pm - - - - - WNW 24 30 13 16 - - -
06/12:00pm - - - - - W 26 32 14 17 - - -
06/11:30am - - - - - W 24 28 13 15 - - -
06/11:00am - - - - - W 24 32 13 17 - - -
06/10:30am - - - - - WNW 26 32 14 17 - - -
06/10:00am - - - - - WSW 20 24 11 13 - - -
06/09:30am - - - - - W 24 28 13 15 - - -
06/09:00am - - - - - WNW 24 30 13 16 - - -
06/08:30am - - - - - WNW 24 32 13 17 - - -
06/08:00am - - - - - WNW 24 28 13 15 - - -
06/07:30am - - - - - WNW 24 30 13 16 - - -
06/07:00am - - - - - WNW 22 28 12 15 - - -
06/06:30am - - - - - W 22 26 12 14 - - -
06/06:00am - - - - - W 20 26 11 14 - - -
06/05:30am - - - - - W 19 24 10 13 - - -
06/05:00am - - - - - W 20 24 11 13 - - -
06/04:30am - - - - - W 20 22 11 12 - - -
06/04:00am - - - - - WSW 17 22 9 12 - - -
06/03:30am - - - - - W 20 24 11 13 - - -
06/03:00am - - - - - W 20 24 11 13 - - -
06/02:30am - - - - - W 17 20 9 11 - - -
06/02:00am - - - - - W 17 22 9 12 - - -
06/01:30am - - - - - W 17 20 9 11 - - -
06/01:00am - - - - - W 17 22 9 12 - - -
06/12:30am - - - - - W 20 24 11 13 - - -
06/12:00am - - - - - W 20 24 11 13 - - -
 
Date/Time
EST
Temp
°C
App
Temp
°C
Dew
Point
Rel
Hum
%
Delta-T
°C
Wind Press
QNH
hPa
Press
MSL
hPa
Rain
since 9 am
mm
Dir
 
Spd
km/h
Gust
km/h
Spd
kts
Gust
kts
05/11:30pm - - - - - WSW 19 24 10 13 - - -
05/11:00pm - - - - - WSW 19 22 10 12 - - -
05/10:30pm - - - - - WSW 20 26 11 14 - - -
05/10:00pm - - - - - WSW 20 26 11 14 - - -
05/09:30pm - - - - - WSW 20 24 11 13 - - -
05/09:00pm - - - - - W 22 26 12 14 - - -
05/08:30pm - - - - - WSW 22 26 12 14 - - -
05/08:00pm - - - - - WSW 22 26 12 14 - - -
05/07:30pm - - - - - WSW 22 28 12 15 - - -
05/07:00pm - - - - - WSW 20 24 11 13 - - -
05/06:30pm - - - - - WSW 19 26 10 14 - - -
05/06:00pm - - - - - SW 19 24 10 13 - - -
05/05:30pm - - - - - WSW 22 28 12 15 - - -
05/05:00pm - - - - - WSW 22 28 12 15 - - -
05/04:30pm - - - - - SW 24 30 13 16 - - -
05/04:00pm - - - - - WSW 28 32 15 17 - - -
05/03:30pm - - - - - W 24 30 13 16 - - -
05/03:00pm - - - - - W 24 30 13 16 - - -
05/02:30pm - - - - - W 28 32 15 17 - - -
05/02:00pm - - - - - W 28 33 15 18 - - -
05/01:30pm - - - - - W 32 39 17 21 - - -
05/01:00pm - - - - - W 32 37 17 20 - - -
05/12:30pm - - - - - W 35 41 19 22 - - -
05/12:00pm - - - - - WNW 32 39 17 21 - - -
05/11:30am - - - - - WNW 32 39 17 21 - - -
05/11:00am - - - - - WNW 32 37 17 20 - - -
05/10:30am - - - - - WNW 33 43 18 23 - - -
05/10:00am - - - - - WNW 33 39 18 21 - - -
05/09:30am - - - - - WNW 32 41 17 22 - - -
05/09:00am - - - - - NW 22 30 12 16 - - -
05/08:30am - - - - - NW 22 32 12 17 - - -
05/08:00am - - - - - NW 20 26 11 14 - - -
05/07:30am - - - - - NW 7 17 4 9 - - -
05/07:00am - - - - - WNW 26 37 14 20 - - -
05/06:30am - - - - - NW 15 20 8 11 - - -
05/06:00am - - - - - NW 11 15 6 8 - - -
05/05:30am - - - - - NW 13 19 7 10 - - -
05/05:00am - - - - - WNW 19 24 10 13 - - -
05/04:30am - - - - - NW 9 15 5 8 - - -
05/04:00am - - - - - NNW 9 13 5 7 - - -
05/03:30am - - - - - WNW 9 15 5 8 - - -
05/03:00am - - - - - WSW 17 20 9 11 - - -
05/02:30am - - - - - WSW 13 17 7 9 - - -
05/02:00am - - - - - WSW 13 20 7 11 - - -
05/01:30am - - - - - SW 17 20 9 11 - - -
05/01:00am - - - - - N 2 6 1 3 - - -
05/12:30am - - - - - SE 9 19 5 10 - - -
05/12:00am - - - - - SSE 9 20 5 11 - - -
 
Date/Time
EST
Temp
°C
App
Temp
°C
Dew
Point
Rel
Hum
%
Delta-T
°C
Wind Press
QNH
hPa
Press
MSL
hPa
Rain
since 9 am
mm
Dir
 
Spd
km/h
Gust
km/h
Spd
kts
Gust
kts
04/11:30pm - - - - - SW 22 28 12 15 - - -
04/11:00pm - - - - - SW 20 24 11 13 - - -
04/10:30pm - - - - - SW 19 24 10 13 - - -
04/10:00pm - - - - - SSW 17 24 9 13 - - -
04/09:30pm - - - - - SSW 13 20 7 11 - - -
04/09:00pm - - - - - SW 20 24 11 13 - - -
04/08:30pm - - - - - WSW 11 15 6 8 - - -
04/08:00pm - - - - - W 20 28 11 15 - - -
04/07:30pm - - - - - SSW 15 26 8 14 - - -
04/07:00pm - - - - - NE 6 17 3 9 - - -
04/06:30pm - - - - - SW 17 20 9 11 - - -
04/06:00pm - - - - - SW 19 37 10 20 - - -
04/05:30pm - - - - - SW 22 28 12 15 - - -
04/05:00pm - - - - - SSW 20 26 11 14 - - -
04/04:30pm - - - - - SSW 24 30 13 16 - - -
04/04:00pm - - - - - SW 24 30 13 16 - - -
04/03:30pm - - - - - SSW 26 32 14 17 - - -
04/03:00pm - - - - - SW 24 32 13 17 - - -
04/02:30pm - - - - - SSW 19 24 10 13 - - -
04/02:00pm - - - - - SSW 22 28 12 15 - - -
04/01:30pm - - - - - SSW 20 28 11 15 - - -
04/01:00pm - - - - - SW 24 30 13 16 - - -
04/12:30pm - - - - - SSW 22 30 12 16 - - -
04/12:00pm - - - - - SSW 26 32 14 17 - - -
04/11:30am - - - - - SW 28 35 15 19 - - -
04/11:00am - - - - - SSW 22 30 12 16 - - -
04/10:30am - - - - - SSW 22 28 12 15 - - -
04/10:00am - - - - - S 15 24 8 13 - - -
04/09:30am - - - - - SW 28 35 15 19 - - -
04/09:00am - - - - - S 20 28 11 15 - - -
04/08:30am - - - - - SSW 20 28 11 15 - - -
04/08:00am - - - - - S 13 24 7 13 - - -
04/07:30am - - - - - S 20 33 11 18 - - -
04/07:00am - - - - - S 26 35 14 19 - - -
04/06:30am - - - - - SSE 15 22 8 12 - - -
04/06:00am - - - - - SSE 17 30 9 16 - - -
04/05:30am - - - - - SSW 24 37 13 20 - - -
04/05:00am - - - - - S 26 33 14 18 - - -
04/04:30am - - - - - SSE 17 28 9 15 - - -
04/04:00am - - - - - SSE 22 41 12 22 - - -
04/03:57am - - - - - S 28 43 15 23 - - -
04/03:41am - - - - - S 28 44 15 24 - - -
04/03:30am - - - - - SSE 17 24 9 13 - - -
04/03:06am - - - - - S 28 46 15 25 - - -
04/03:00am - - - - - S 20 30 11 16 - - -
04/02:30am - - - - - S 28 39 15 21 - - -
04/02:00am - - - - - S 28 43 15 23 - - -
04/01:30am - - - - - SSE 26 35 14 19 - - -
04/01:10am - - - - - SSW 35 56 19 30 - - -
04/01:00am - - - - - SSW 46 57 25 31 - - -
04/12:35am - - - - - SSW 32 50 17 27 - - -
04/12:30am - - - - - SSW 39 52 21 28 - - -
04/12:00am - - - - - S 32 44 17 24 - - -
 
Date/Time
EST
Temp
°C
App
Temp
°C
Dew
Point
Rel
Hum
%
Delta-T
°C
Wind Press
QNH
hPa
Press
MSL
hPa
Rain
since 9 am
mm
Dir
 
Spd
km/h
Gust
km/h
Spd
kts
Gust
kts
03/11:30pm - - - - - S 33 44 18 24 - - -
03/11:07pm - - - - - S 35 54 19 29 - - -
03/11:00pm - - - - - S 35 46 19 25 - - -
03/10:32pm - - - - - SSW 33 54 18 29 - - -
03/10:30pm - - - - - SSW 32 46 17 25 - - -
03/10:00pm - - - - - S 39 57 21 31 - - -
03/09:31pm - - - - - S 37 56 20 30 - - -
03/09:30pm - - - - - S 39 56 21 30 - - -
03/09:16pm - - - - - S 39 59 21 32 - - -
03/09:00pm - - - - - S 39 52 21 28 - - -
03/08:30pm - - - - - S 43 56 23 30 - - -
03/08:00pm - - - - - S 41 57 22 31 - - -
03/07:41pm - - - - - S 41 59 22 32 - - -
03/07:39pm - - - - - S 43 59 23 32 - - -
03/07:30pm - - - - - SSW 44 57 24 31 - - -
03/07:00pm - - - - - SSW 44 61 24 33 - - -
03/06:30pm - - - - - S 46 65 25 35 - - -
03/06:24pm - - - - - S 46 65 25 35 - - -
03/06:00pm - - - - - S 46 61 25 33 - - -
03/05:30pm - - - - - S 39 59 21 32 - - -
03/05:11pm - - - - - S 46 80 25 43 - - -
03/05:00pm - - - - - S 41 56 22 30 - - -
03/04:30pm - - - - - S 48 63 26 34 - - -
03/04:04pm - - - - - S 44 63 24 34 - - -
03/04:00pm - - - - - S 46 56 25 30 - - -
03/03:30pm - - - - - S 48 59 26 32 - - -
03/03:00pm - - - - - S 54 69 29 37 - - -
03/02:50pm - - - - - S 50 69 27 37 - - -
03/02:30pm - - - - - SSW 52 65 28 35 - - -
03/02:00pm - - - - - SSW 50 59 27 32 - - -
03/01:30pm - - - - - SSW 56 76 30 41 - - -
03/01:23pm - - - - - SSW 52 70 28 38 - - -

Other Formats:

Comma delimited format used in spreadsheet applications
http://www.bom.gov.au/fwo/IDN60801/IDN60801.95995.axf

JavaScript Object Notation format (JSON) in row-major order
http://www.bom.gov.au/fwo/IDN60801/IDN60801.95995.json